Asau, Samoa

3:07 PM +13 on May 30, 2017 (GMT +1300)
Faleolo International | | Change Station

Elev 16 ft 13.82 °S, 172.00 °W | Updated 1 hour ago

Clear
Clear
90 °F
Feels Like 95 °F
N
17
Wind Variable Wind from East

Today
High -- | Low -- °F
--% Chance of Precip.
Yesterday
High -- | Low -- °F
Precip. -- in
Pressure 29.86 in
Visibility 6.2 miles
Clouds Few 2300 ft
Heat Index 95 °F
Dew Point 70 °F
Humidity 52%
Rainfall 0.00 in
Snow Depth Not available.
6:46 AM 6:09 PM
Waxing Crescent, 24% visible
METAR NSFA 300100Z 08015KT 9999 FEW023 32/21 Q1011 RMK DRY AIR 53
Pressure 29.86 in
Visibility 6.2 miles
Clouds Few 2300 ft
Heat Index 95 °F
Dew Point 70 °F
Humidity 52%
Rainfall 0.00 in
Snow Depth Not available.
6:46 AM 6:09 PM
Waxing Crescent, 24% visible
METAR NSFA 300100Z 08015KT 9999 FEW023 32/21 Q1011 RMK DRY AIR 53

Get Severe Weather Alerts

Thanks for signing up!

Be on the lookout for a verification email in your inbox.

You'll start receiving the daily forecast at 6 AM.

×

10-Day Weather Forecast

×

Almanac

Astronomy

May. 30, 2017 Rise Set
Actual Time
Civil Twilight
Nautical Twilight
Astronomical Twilight
Moon
Length of Visible Light
Length of Day
Tomorrow will be .
, % of the Moon is Illuminated

Today's Extremes

Country Highs Country Lows

Community

WunderPhotos

Category 6

Welcome to Category 6. This is the collective home for Weather Underground's featured writeups by Dr. Jeff Masters (right), Bob Henson (left), Chris Burt, and other regular contributors.

Nearby

Air Quality

  Air Quality AQ Index Pollutant
Not available.

Snow Depth

Station Depth Elevation

Earthquake Activity

City Distance Mag. Time & Date
Minimum magnitude displayed is 2.5.

Coastal Water Temperatures

Place Temperature

Stations

Nearby Weather Stations

Station Location Temp. Windchill Dew Point Humidity Wind Precip. Elev Updated Type